Time;durP1;ratioP1;P1;durP2;ratioP2;P2;SDS_P1;SDS_P2;PMS_P1;PMS_P2;Temp;Humidity;BMP_temperature;BMP_pressure;BME280_temperature;BME280_humidity;BME280_pressure;Samples;Min_cycle;Max_cycle;Signal;HPM_P1;HPM_P2
2023/08/06 00:03:37;;;;;;;;;;;21.50;67.70;;;;;;10290309;28;94284;-69
2023/08/06 00:08:38;;;;;;;;;;;21.50;67.80;;;;;;10289369;28;94522;-69
2023/08/06 00:13:40;;;;;;;;;;;21.50;67.80;;;;;;10289175;28;94875;-68
2023/08/06 00:18:42;;;;;;;;;;;21.50;67.80;;;;;;10289610;28;93762;-69
2023/08/06 00:23:44;;;;;;;;;;;21.50;67.90;;;;;;10286636;28;93037;-68
2023/08/06 00:28:46;;;;;;;;;;;21.50;67.90;;;;;;10288306;28;94565;-69
2023/08/06 00:33:47;;;;;;;;;;;21.50;67.90;;;;;;10286258;28;95147;-68
2023/08/06 00:38:49;;;;;;;;;;;21.40;67.90;;;;;;10286804;28;93464;-68
2023/08/06 00:43:51;;;;;;;;;;;21.40;67.80;;;;;;10287808;28;93406;-68
2023/08/06 00:48:53;;;;;;;;;;;21.40;67.90;;;;;;10287582;28;93403;-68
2023/08/06 00:53:55;;;;;;;;;;;21.40;67.90;;;;;;10287895;28;93451;-68
2023/08/06 00:58:57;;;;;;;;;;;21.40;67.90;;;;;;10287552;28;92558;-68
2023/08/06 01:03:59;;;;;;;;;;;21.40;67.90;;;;;;10289116;28;94672;-68
2023/08/06 01:09:07;;;;;;;;;;;21.40;67.90;;;;;;10287470;28;93204;-68
2023/08/06 01:14:15;;;;;;;;;;;21.40;67.90;;;;;;10287033;28;92988;-67
2023/08/06 01:19:18;;;;;;;;;;;21.40;67.90;;;;;;10288445;28;93414;-67
2023/08/06 01:24:19;;;;;;;;;;;21.40;67.90;;;;;;10286144;28;95781;-68
2023/08/06 01:29:41;;;;;;;;;;;21.30;67.90;;;;;;10290767;28;94562;-68
2023/08/06 01:34:44;;;;;;;;;;;21.30;67.90;;;;;;10293364;28;94784;-69
2023/08/06 01:39:46;;;;;;;;;;;21.30;67.90;;;;;;10292248;28;95537;-67
2023/08/06 01:44:48;;;;;;;;;;;21.30;67.90;;;;;;10293768;28;95806;-67
2023/08/06 01:49:50;;;;;;;;;;;21.30;69.00;;;;;;10293287;28;94399;-68
2023/08/06 01:54:51;;;;;;;;;;;21.30;67.90;;;;;;10293253;28;94392;-68
2023/08/06 01:59:53;;;;;;;;;;;21.30;67.90;;;;;;10293818;28;92439;-68
2023/08/06 02:04:55;;;;;;;;;;;21.30;68.00;;;;;;10292376;28;95366;-68
2023/08/06 02:09:57;;;;;;;;;;;21.30;68.00;;;;;;10293439;28;93610;-68
2023/08/06 02:14:59;;;;;;;;;;;21.30;68.00;;;;;;10290042;28;96359;-67
2023/08/06 02:20:01;;;;;;;;;;;21.30;67.90;;;;;;10292480;28;93409;-68
2023/08/06 02:25:03;;;;;;;;;;;21.30;67.90;;;;;;10291218;28;93433;-68
2023/08/06 02:30:05;;;;;;;;;;;21.30;67.90;;;;;;10292095;28;94381;-69
2023/08/06 02:35:07;;;;;;;;;;;21.30;67.80;;;;;;10291894;28;92927;-68
2023/08/06 02:40:09;;;;;;;;;;;21.30;67.80;;;;;;10290942;28;93473;-68
2023/08/06 02:45:11;;;;;;;;;;;21.30;67.80;;;;;;10290429;28;94433;-69
2023/08/06 02:50:12;;;;;;;;;;;21.30;67.70;;;;;;10290673;28;92670;-68
2023/08/06 02:55:14;;;;;;;;;;;21.30;67.70;;;;;;10290152;28;93755;-68
2023/08/06 03:00:16;;;;;;;;;;;21.30;67.70;;;;;;10291297;28;93797;-69
2023/08/06 03:05:18;;;;;;;;;;;21.30;67.70;;;;;;10289202;28;97705;-69
2023/08/06 03:10:20;;;;;;;;;;;21.40;67.70;;;;;;10290679;28;94851;-67
2023/08/06 03:15:22;;;;;;;;;;;21.40;67.60;;;;;;10290766;28;94902;-68
2023/08/06 03:20:25;;;;;;;;;;;21.30;67.50;;;;;;10290517;28;93490;-69
2023/08/06 03:25:26;;;;;;;;;;;21.40;67.60;;;;;;10290794;28;94509;-68
2023/08/06 03:30:28;;;;;;;;;;;21.40;67.50;;;;;;10289298;28;94721;-68
2023/08/06 03:35:30;;;;;;;;;;;21.40;67.50;;;;;;10289014;28;93481;-68
2023/08/06 03:40:34;;;;;;;;;;;21.40;67.50;;;;;;10290191;28;93600;-67
2023/08/06 03:45:36;;;;;;;;;;;21.40;67.60;;;;;;10288324;28;93377;-68
2023/08/06 03:50:38;;;;;;;;;;;21.40;67.50;;;;;;10287510;28;93957;-67
2023/08/06 03:55:40;;;;;;;;;;;21.40;67.40;;;;;;10287285;28;94927;-68
2023/08/06 04:00:42;;;;;;;;;;;21.40;67.40;;;;;;10290059;28;94075;-67
2023/08/06 04:05:43;;;;;;;;;;;21.40;67.40;;;;;;10288228;28;93930;-68
2023/08/06 04:10:48;;;;;;;;;;;21.40;67.40;;;;;;10288899;28;93430;-68
2023/08/06 04:15:50;;;;;;;;;;;21.40;67.40;;;;;;10289295;28;94380;-69
2023/08/06 04:20:52;;;;;;;;;;;21.40;67.40;;;;;;10286781;28;93723;-67
2023/08/06 04:25:57;;;;;;;;;;;21.40;67.30;;;;;;10288784;28;93788;-68
2023/08/06 04:30:59;;;;;;;;;;;21.40;67.30;;;;;;10286854;28;92719;-68
2023/08/06 04:36:01;;;;;;;;;;;21.40;67.30;;;;;;10288248;28;93407;-68
2023/08/06 04:41:03;;;;;;;;;;;21.40;67.30;;;;;;10287737;28;93433;-67
2023/08/06 04:51:25;;;;;;;;;;;21.40;67.20;;;;;;8095982;22;94248;-69
2023/08/06 04:56:27;;;;;;;;;;;21.40;67.20;;;;;;10328200;28;93580;-68
2023/08/06 05:01:29;;;;;;;;;;;21.40;67.10;;;;;;10327576;28;94514;-68
2023/08/06 05:06:31;;;;;;;;;;;21.40;67.10;;;;;;10327370;28;94425;-69
2023/08/06 05:11:33;;;;;;;;;;;21.40;67.10;;;;;;10327789;28;93567;-68
2023/08/06 05:16:35;;;;;;;;;;;21.40;67.10;;;;;;10327290;28;94797;-69
2023/08/06 05:21:36;;;;;;;;;;;21.40;67.10;;;;;;10328960;28;92581;-69
2023/08/06 05:26:38;;;;;;;;;;;21.50;67.20;;;;;;10326705;28;94168;-67
2023/08/06 05:31:40;;;;;;;;;;;21.50;67.10;;;;;;10327923;28;94092;-66
2023/08/06 05:36:42;;;;;;;;;;;21.50;67.10;;;;;;10306663;28;96162;-65
2023/08/06 05:41:43;;;;;;;;;;;21.50;67.00;;;;;;10326587;28;94105;-66
2023/08/06 05:46:45;;;;;;;;;;;21.60;67.10;;;;;;10326558;28;94081;-66
2023/08/06 05:51:48;;;;;;;;;;;21.60;67.10;;;;;;10326496;28;93921;-66
2023/08/06 05:56:49;;;;;;;;;;;21.60;67.00;;;;;;10309785;28;94382;-67
2023/08/06 06:01:51;;;;;;;;;;;21.60;67.00;;;;;;10327446;28;94792;-66
2023/08/06 06:06:53;;;;;;;;;;;21.60;67.00;;;;;;10327757;28;92733;-67
2023/08/06 06:11:55;;;;;;;;;;;21.60;67.00;;;;;;10327682;28;94056;-66
2023/08/06 06:16:57;;;;;;;;;;;21.60;66.90;;;;;;10333355;28;94352;-66
2023/08/06 06:21:59;;;;;;;;;;;21.60;66.90;;;;;;10332706;28;95895;-66
2023/08/06 06:27:01;;;;;;;;;;;21.60;66.90;;;;;;10329299;28;96896;-66
2023/08/06 06:32:03;;;;;;;;;;;21.60;66.90;;;;;;10331432;28;94543;-65
2023/08/06 06:37:05;;;;;;;;;;;21.60;67.00;;;;;;10332605;28;94422;-65
2023/08/06 06:42:07;;;;;;;;;;;21.60;67.10;;;;;;10332330;28;93477;-66
2023/08/06 06:47:08;;;;;;;;;;;21.50;67.10;;;;;;10330897;28;93478;-67
2023/08/06 06:52:11;;;;;;;;;;;21.50;67.10;;;;;;10330194;28;92587;-67
2023/08/06 06:57:13;;;;;;;;;;;21.50;67.10;;;;;;10332693;28;93781;-66
2023/08/06 07:02:14;;;;;;;;;;;21.50;67.20;;;;;;10332959;28;92581;-67
2023/08/06 07:07:16;;;;;;;;;;;21.50;67.30;;;;;;10331492;28;94392;-66
2023/08/06 07:12:18;;;;;;;;;;;21.40;67.30;;;;;;10313450;28;93533;-66
2023/08/06 07:17:20;;;;;;;;;;;21.40;67.30;;;;;;10330124;28;96960;-67
2023/08/06 07:22:21;;;;;;;;;;;21.40;67.40;;;;;;10313400;28;94423;-68
2023/08/06 07:27:24;;;;;;;;;;;21.40;68.30;;;;;;10329772;28;94783;-65
2023/08/06 07:32:26;;;;;;;;;;;21.40;68.30;;;;;;10330824;28;92945;-66
2023/08/06 07:37:28;;;;;;;;;;;21.40;68.60;;;;;;10330519;28;93487;-69
2023/08/06 07:42:30;;;;;;;;;;;21.40;68.80;;;;;;10312141;28;95945;-64
2023/08/06 07:47:32;;;;;;;;;;;21.50;69.20;;;;;;10330677;28;95848;-65
2023/08/06 07:52:34;;;;;;;;;;;21.50;69.40;;;;;;10330521;28;92915;-65
2023/08/06 07:57:36;;;;;;;;;;;21.50;69.30;;;;;;10329195;28;93464;-66
2023/08/06 08:02:37;;;;;;;;;;;21.50;69.10;;;;;;10329361;28;94457;-65
2023/08/06 08:07:39;;;;;;;;;;;21.50;69.10;;;;;;10326290;28;95956;-65
2023/08/06 08:12:42;;;;;;;;;;;21.40;69.10;;;;;;10328865;28;93480;-66
2023/08/06 08:17:44;;;;;;;;;;;21.40;69.00;;;;;;10330149;28;94441;-65
2023/08/06 08:22:45;;;;;;;;;;;21.40;69.00;;;;;;10329527;28;93559;-65
2023/08/06 08:27:47;;;;;;;;;;;21.40;68.90;;;;;;10329538;28;93527;-66
2023/08/06 08:32:49;;;;;;;;;;;21.40;69.00;;;;;;10329065;28;94542;-65
2023/08/06 08:37:51;;;;;;;;;;;21.30;68.90;;;;;;10328013;28;93428;-66
2023/08/06 08:42:53;;;;;;;;;;;21.30;68.90;;;;;;10329364;28;93594;-66
2023/08/06 08:47:55;;;;;;;;;;;21.30;69.00;;;;;;10328360;28;93472;-66
2023/08/06 08:52:57;;;;;;;;;;;21.30;69.10;;;;;;10329550;28;93930;-66
2023/08/06 08:57:59;;;;;;;;;;;21.30;69.10;;;;;;10326025;28;96948;-66
2023/08/06 09:03:01;;;;;;;;;;;21.30;69.10;;;;;;10327312;28;94511;-65
2023/08/06 09:08:03;;;;;;;;;;;21.30;69.10;;;;;;10328443;28;94566;-66
2023/08/06 09:13:06;;;;;;;;;;;21.20;69.00;;;;;;10327780;28;93572;-66
2023/08/06 09:18:11;;;;;;;;;;;21.30;69.20;;;;;;10327652;28;93438;-66
2023/08/06 09:23:13;;;;;;;;;;;21.20;69.20;;;;;;10327620;28;93400;-66
2023/08/06 09:28:15;;;;;;;;;;;21.20;69.20;;;;;;10327935;28;93147;-66
2023/08/06 09:33:19;;;;;;;;;;;21.20;69.20;;;;;;10328985;28;93639;-66
2023/08/06 09:38:21;;;;;;;;;;;21.20;69.20;;;;;;10327012;28;94852;-66
2023/08/06 09:43:23;;;;;;;;;;;21.20;69.20;;;;;;10327581;28;94536;-65
2023/08/06 09:48:25;;;;;;;;;;;21.20;69.20;;;;;;10326721;28;95728;-65
2023/08/06 09:53:28;;;;;;;;;;;21.20;69.20;;;;;;10332942;28;93431;-66
2023/08/06 09:58:31;;;;;;;;;;;21.20;69.20;;;;;;10332572;28;92879;-66
2023/08/06 10:03:33;;;;;;;;;;;21.20;69.10;;;;;;10334092;28;93427;-66
2023/08/06 10:08:35;;;;;;;;;;;21.30;69.10;;;;;;10332679;28;93604;-66
2023/08/06 10:13:37;;;;;;;;;;;21.30;69.10;;;;;;10333026;28;93464;-66
2023/08/06 10:18:39;;;;;;;;;;;21.30;69.60;;;;;;10332357;28;93313;-65
2023/08/06 10:23:41;;;;;;;;;;;21.30;69.80;;;;;;10333108;28;93052;-66
2023/08/06 10:28:43;;;;;;;;;;;21.40;69.70;;;;;;10314596;28;93471;-66
2023/08/06 10:33:45;;;;;;;;;;;21.50;69.80;;;;;;10332386;28;93472;-65
2023/08/06 10:38:48;;;;;;;;;;;21.50;69.90;;;;;;10330100;28;96291;-66
2023/08/06 10:43:49;;;;;;;;;;;21.60;69.90;;;;;;10331780;28;93003;-66
2023/08/06 10:48:51;;;;;;;;;;;21.60;70.00;;;;;;10331499;28;94724;-66
2023/08/06 10:53:53;;;;;;;;;;;21.60;70.00;;;;;;10331537;28;93491;-66
2023/08/06 10:58:56;;;;;;;;;;;21.60;70.00;;;;;;10332018;28;93455;-66
2023/08/06 11:04:01;;;;;;;;;;;21.70;70.10;;;;;;10331136;28;93464;-66
2023/08/06 11:09:03;;;;;;;;;;;21.70;70.10;;;;;;10330931;28;93739;-66
2023/08/06 11:14:05;;;;;;;;;;;21.70;70.10;;;;;;10330245;28;92495;-66
2023/08/06 11:19:07;;;;;;;;;;;21.80;70.10;;;;;;10331806;28;94059;-65
2023/08/06 11:24:12;;;;;;;;;;;21.80;70.10;;;;;;10331534;28;93390;-66
2023/08/06 11:29:15;;;;;;;;;;;21.80;70.10;;;;;;10328342;28;96951;-67
2023/08/06 11:34:16;;;;;;;;;;;21.80;70.10;;;;;;10331026;28;94523;-65
2023/08/06 11:39:18;;;;;;;;;;;21.80;70.70;;;;;;10311951;28;93604;-66
2023/08/06 11:44:22;;;;;;;;;;;21.80;70.10;;;;;;10311952;28;94439;-66
2023/08/06 11:49:40;;;;;;;;;;;21.80;70.10;;;;;;10311699;28;94564;-66
2023/08/06 11:54:42;;;;;;;;;;;21.80;70.10;;;;;;10330326;28;92488;-66
2023/08/06 11:59:45;;;;;;;;;;;21.90;70.30;;;;;;10329865;28;93387;-66
2023/08/06 12:05:00;;;;;;;;;;;21.90;70.20;;;;;;10331543;28;92635;-65
2023/08/06 12:10:02;;;;;;;;;;;21.90;70.20;;;;;;10295088;28;93531;-67
2023/08/06 12:15:04;;;;;;;;;;;21.90;70.40;;;;;;10329935;28;93380;-66
2023/08/06 12:20:06;;;;;;;;;;;21.90;70.60;;;;;;10327561;28;96803;-66
2023/08/06 12:25:11;;;;;;;;;;;21.90;70.40;;;;;;10328767;28;94679;-65
2023/08/06 12:30:13;;;;;;;;;;;21.90;70.50;;;;;;10329054;28;95509;-65
2023/08/06 12:35:15;;;;;;;;;;;21.90;70.60;;;;;;10328729;28;94402;-66
2023/08/06 12:40:17;;;;;;;;;;;21.90;70.60;;;;;;10326753;28;95265;-66
2023/08/06 12:45:37;;;;;;;;;;;21.90;70.80;;;;;;10328705;28;94408;-65
2023/08/06 12:50:39;;;;;;;;;;;21.90;70.80;;;;;;10326703;28;94593;-65
2023/08/06 12:55:41;;;;;;;;;;;21.90;70.50;;;;;;10328733;28;93674;-65
2023/08/06 13:00:43;;;;;;;;;;;21.80;70.10;;;;;;10327882;28;94404;-65
2023/08/06 13:05:45;;;;;;;;;;;21.80;70.20;;;;;;10327339;28;93590;-65
2023/08/06 13:10:47;;;;;;;;;;;21.70;70.10;;;;;;10324041;28;95760;-65
2023/08/06 13:15:49;;;;;;;;;;;21.70;70.20;;;;;;10328389;28;93481;-65
2023/08/06 13:20:52;;;;;;;;;;;21.70;70.40;;;;;;10327960;28;93677;-64
2023/08/06 13:25:55;;;;;;;;;;;21.70;70.50;;;;;;10334521;28;94653;-65
2023/08/06 13:30:57;;;;;;;;;;;21.70;70.70;;;;;;10333852;28;95432;-64
2023/08/06 13:35:59;;;;;;;;;;;21.60;70.60;;;;;;10333925;28;94712;-64
2023/08/06 13:41:00;;;;;;;;;;;21.70;70.70;;;;;;10334459;28;94408;-65
2023/08/06 13:46:02;;;;;;;;;;;21.70;70.80;;;;;;10334911;28;92978;-64
2023/08/06 13:51:04;;;;;;;;;;;21.60;70.50;;;;;;10332235;28;94299;-66
2023/08/06 13:56:06;;;;;;;;;;;21.60;70.50;;;;;;10334064;28;93331;-64
2023/08/06 14:01:09;;;;;;;;;;;21.60;70.50;;;;;;10330077;28;95799;-64
2023/08/06 14:06:11;;;;;;;;;;;21.60;70.50;;;;;;10333938;28;94878;-64
2023/08/06 14:11:13;;;;;;;;;;;21.60;70.40;;;;;;10334247;28;94532;-64
2023/08/06 14:16:14;;;;;;;;;;;21.60;70.40;;;;;;10331481;28;94539;-64
2023/08/06 14:21:16;;;;;;;;;;;21.60;70.60;;;;;;10332912;28;93431;-64
2023/08/06 14:26:18;;;;;;;;;;;21.60;70.70;;;;;;10332346;28;93474;-65
2023/08/06 14:31:20;;;;;;;;;;;21.70;70.60;;;;;;10331454;28;96484;-65
2023/08/06 14:36:22;;;;;;;;;;;21.70;70.50;;;;;;10333067;28;93737;-65
2023/08/06 14:41:24;;;;;;;;;;;21.70;70.50;;;;;;10332138;28;94788;-65
2023/08/06 14:46:26;;;;;;;;;;;21.80;70.50;;;;;;10331818;28;92560;-65
2023/08/06 14:51:28;;;;;;;;;;;21.80;70.50;;;;;;10328885;28;96073;-64
2023/08/06 14:56:30;;;;;;;;;;;21.80;70.40;;;;;;10331388;28;94500;-65
2023/08/06 15:01:32;;;;;;;;;;;21.80;70.40;;;;;;10331278;28;92873;-65
2023/08/06 15:06:34;;;;;;;;;;;21.70;70.60;;;;;;10331150;28;93349;-65
2023/08/06 15:11:35;;;;;;;;;;;21.70;70.80;;;;;;10331013;28;94417;-64
2023/08/06 15:16:37;;;;;;;;;;;21.70;70.90;;;;;;10330712;28;93396;-67
2023/08/06 15:21:39;;;;;;;;;;;21.70;70.90;;;;;;10332100;28;94132;-65
2023/08/06 15:26:41;;;;;;;;;;;21.70;71.90;;;;;;10331534;28;92742;-64
2023/08/06 15:31:43;;;;;;;;;;;21.80;72.10;;;;;;10330604;28;94471;-64
2023/08/06 15:36:45;;;;;;;;;;;21.80;71.70;;;;;;10331098;28;94866;-64
2023/08/06 15:41:47;;;;;;;;;;;21.90;71.50;;;;;;10310152;28;95896;-64
2023/08/06 15:46:48;;;;;;;;;;;21.90;71.10;;;;;;10328640;28;94425;-65
2023/08/06 15:51:52;;;;;;;;;;;22.00;70.90;;;;;;10329604;28;94533;-65
2023/08/06 15:56:56;;;;;;;;;;;22.00;70.80;;;;;;10328925;28;114133;-64
2023/08/06 16:01:58;;;;;;;;;;;21.90;70.80;;;;;;10312034;28;93469;-62
2023/08/06 16:07:00;;;;;;;;;;;22.00;70.90;;;;;;10312245;28;94794;-63
2023/08/06 16:12:03;;;;;;;;;;;22.00;70.70;;;;;;10329392;28;93968;-64
2023/08/06 16:17:05;;;;;;;;;;;22.00;70.70;;;;;;10329654;28;93274;-62
2023/08/06 16:22:07;;;;;;;;;;;22.00;71.10;;;;;;10329817;28;94519;-64
2023/08/06 16:27:08;;;;;;;;;;;22.10;71.70;;;;;;10328931;28;94505;-63
2023/08/06 16:32:10;;;;;;;;;;;22.20;71.10;;;;;;10308036;28;95874;-64
2023/08/06 16:37:12;;;;;;;;;;;22.30;71.50;;;;;;10327032;28;94378;-63
2023/08/06 16:42:14;;;;;;;;;;;22.70;71.20;;;;;;10328011;28;93510;-64
2023/08/06 16:47:15;;;;;;;;;;;22.70;70.70;;;;;;10327799;28;93434;-62
2023/08/06 16:52:17;;;;;;;;;;;22.70;69.50;;;;;;10328376;28;94414;-63
2023/08/06 16:57:19;;;;;;;;;;;22.70;69.50;;;;;;10327766;28;94393;-63
2023/08/06 17:02:21;;;;;;;;;;;22.60;69.20;;;;;;10327287;28;94612;-63
2023/08/06 17:07:23;;;;;;;;;;;22.50;69.50;;;;;;10326882;28;92919;-63
2023/08/06 17:12:25;;;;;;;;;;;22.40;68.00;;;;;;10326207;28;94471;-63
2023/08/06 17:17:27;;;;;;;;;;;22.30;68.00;;;;;;10325616;28;94710;-63
2023/08/06 17:22:29;;;;;;;;;;;22.30;68.30;;;;;;10325137;28;96871;-63
2023/08/06 17:27:31;;;;;;;;;;;22.20;68.30;;;;;;10327187;28;94759;-63
2023/08/06 17:32:33;;;;;;;;;;;22.20;68.30;;;;;;10324750;28;93458;-63
2023/08/06 17:37:35;;;;;;;;;;;22.20;68.30;;;;;;10326969;28;94134;-63
2023/08/06 17:42:36;;;;;;;;;;;22.20;68.50;;;;;;10326377;28;94428;-63
2023/08/06 17:47:38;;;;;;;;;;;22.10;68.30;;;;;;10326123;28;92816;-63
2023/08/06 17:52:42;;;;;;;;;;;22.10;68.50;;;;;;10326972;28;93485;-63
2023/08/06 17:57:44;;;;;;;;;;;22.10;68.40;;;;;;10328020;28;94177;-64
2023/08/06 18:02:46;;;;;;;;;;;22.10;68.50;;;;;;10327195;28;94448;-64
2023/08/06 18:07:48;;;;;;;;;;;22.10;68.50;;;;;;10325067;28;94524;-64
2023/08/06 18:12:49;;;;;;;;;;;22.00;68.40;;;;;;10330751;28;97291;-64
2023/08/06 18:17:51;;;;;;;;;;;22.00;68.60;;;;;;10333391;28;94563;-63
2023/08/06 18:22:53;;;;;;;;;;;22.00;68.40;;;;;;10332781;28;93823;-64
2023/08/06 18:27:55;;;;;;;;;;;21.90;68.10;;;;;;10333495;28;93973;-64
2023/08/06 18:32:58;;;;;;;;;;;21.90;68.10;;;;;;10332358;28;93903;-64
2023/08/06 18:38:00;;;;;;;;;;;21.90;68.20;;;;;;10333845;28;95640;-64
2023/08/06 18:43:02;;;;;;;;;;;21.80;68.20;;;;;;10332034;28;94004;-64
2023/08/06 18:48:03;;;;;;;;;;;21.80;68.20;;;;;;10313758;28;92773;-64
2023/08/06 18:53:05;;;;;;;;;;;21.80;68.20;;;;;;10332353;28;96831;-64
2023/08/06 18:58:09;;;;;;;;;;;21.80;68.30;;;;;;10331487;28;93465;-64
2023/08/06 19:03:10;;;;;;;;;;;21.80;68.20;;;;;;10329502;28;95837;-64
2023/08/06 19:08:12;;;;;;;;;;;21.80;68.30;;;;;;10329796;28;93488;-63
2023/08/06 19:13:14;;;;;;;;;;;21.70;68.20;;;;;;10330844;28;93365;-64
2023/08/06 19:18:16;;;;;;;;;;;21.70;68.20;;;;;;10331573;28;94475;-63
2023/08/06 19:23:20;;;;;;;;;;;21.70;68.20;;;;;;10328880;28;93377;-63
2023/08/06 19:28:21;;;;;;;;;;;21.70;68.10;;;;;;10330446;28;95367;-63
2023/08/06 19:33:23;;;;;;;;;;;21.70;68.10;;;;;;10331820;28;96267;-63
2023/08/06 19:38:25;;;;;;;;;;;21.70;68.40;;;;;;10331521;28;92861;-63
2023/08/06 19:43:28;;;;;;;;;;;21.70;68.40;;;;;;10330464;28;94041;-64
2023/08/06 19:48:32;;;;;;;;;;;21.70;68.50;;;;;;10311545;28;93430;-64
2023/08/06 19:53:34;;;;;;;;;;;21.70;68.60;;;;;;10309685;28;97007;-63
2023/08/06 19:58:36;;;;;;;;;;;21.70;68.60;;;;;;10329404;28;94224;-63
2023/08/06 20:03:43;;;;;;;;;;;21.70;68.60;;;;;;10329216;28;94421;-63
2023/08/06 20:08:45;;;;;;;;;;;21.60;68.60;;;;;;10328482;28;93490;-64
2023/08/06 20:13:47;;;;;;;;;;;21.60;68.70;;;;;;10311220;28;93754;-63
2023/08/06 20:18:48;;;;;;;;;;;21.60;68.80;;;;;;10328301;28;94108;-63
2023/08/06 20:23:50;;;;;;;;;;;21.60;68.90;;;;;;10310871;28;94934;-63
2023/08/06 20:28:52;;;;;;;;;;;21.60;69.10;;;;;;10329216;28;93756;-63
2023/08/06 20:33:53;;;;;;;;;;;21.60;69.10;;;;;;10327997;28;94457;-63
2023/08/06 20:38:55;;;;;;;;;;;21.60;69.10;;;;;;10310549;28;93459;-63
2023/08/06 20:43:57;;;;;;;;;;;21.60;69.20;;;;;;10326570;28;97632;-63
2023/08/06 20:48:59;;;;;;;;;;;21.60;69.30;;;;;;10327196;28;94520;-63
2023/08/06 20:54:01;;;;;;;;;;;21.50;69.30;;;;;;10309677;28;93439;-63
2023/08/06 20:59:02;;;;;;;;;;;21.50;69.40;;;;;;10309433;28;93433;-63
2023/08/06 21:04:04;;;;;;;;;;;21.50;69.50;;;;;;10326512;28;93486;-63
2023/08/06 21:09:06;;;;;;;;;;;21.50;69.50;;;;;;10327176;28;94473;-63
2023/08/06 21:14:08;;;;;;;;;;;21.50;69.60;;;;;;10327208;28;94497;-63
2023/08/06 21:19:10;;;;;;;;;;;21.50;69.60;;;;;;10328493;28;93389;-63
2023/08/06 21:24:12;;;;;;;;;;;21.50;69.60;;;;;;10327074;28;94498;-63
2023/08/06 21:29:13;;;;;;;;;;;21.50;69.70;;;;;;10309691;28;94532;-63
2023/08/06 21:34:15;;;;;;;;;;;21.50;69.80;;;;;;10323378;28;95889;-63
2023/08/06 21:39:17;;;;;;;;;;;21.40;69.70;;;;;;10326718;28;93426;-63
2023/08/06 21:44:19;;;;;;;;;;;21.50;69.80;;;;;;10329060;28;93485;-64
2023/08/06 21:49:20;;;;;;;;;;;21.50;70.00;;;;;;10315030;28;93994;-63
2023/08/06 21:54:22;;;;;;;;;;;21.40;69.90;;;;;;10334135;28;93451;-63
2023/08/06 21:59:24;;;;;;;;;;;21.40;69.90;;;;;;10333505;28;93402;-63
2023/08/06 22:04:26;;;;;;;;;;;21.40;69.80;;;;;;10333024;28;93787;-63
2023/08/06 22:09:28;;;;;;;;;;;21.40;69.90;;;;;;10316274;28;93037;-63
2023/08/06 22:14:30;;;;;;;;;;;21.40;69.90;;;;;;10316575;28;94101;-63
2023/08/06 22:19:32;;;;;;;;;;;21.40;70.00;;;;;;10334072;28;94216;-63
2023/08/06 22:24:34;;;;;;;;;;;21.40;69.90;;;;;;10331035;28;96138;-63
2023/08/06 22:29:36;;;;;;;;;;;21.40;69.90;;;;;;10332618;28;94095;-63
2023/08/06 22:34:38;;;;;;;;;;;21.40;69.80;;;;;;10332288;28;93422;-63
2023/08/06 22:39:40;;;;;;;;;;;21.40;69.80;;;;;;10332598;28;94341;-63
2023/08/06 22:44:41;;;;;;;;;;;21.40;69.60;;;;;;10332124;28;94405;-65
2023/08/06 22:49:43;;;;;;;;;;;21.40;69.60;;;;;;10331416;28;93428;-65
2023/08/06 22:54:45;;;;;;;;;;;21.30;69.50;;;;;;10332189;28;94440;-65
2023/08/06 23:00:04;;;;;;;;;;;21.30;69.40;;;;;;10332989;28;93714;-65
2023/08/06 23:05:06;;;;;;;;;;;21.30;69.50;;;;;;10331763;28;92783;-65
2023/08/06 23:10:08;;;;;;;;;;;21.30;69.40;;;;;;10331632;28;93449;-65
2023/08/06 23:15:10;;;;;;;;;;;21.30;69.40;;;;;;10329024;28;97084;-65
2023/08/06 23:20:11;;;;;;;;;;;21.30;69.40;;;;;;10331918;28;94521;-64
2023/08/06 23:25:13;;;;;;;;;;;21.30;69.30;;;;;;10330634;28;94398;-65
2023/08/06 23:30:15;;;;;;;;;;;21.30;69.30;;;;;;10331414;28;92816;-65
2023/08/06 23:35:17;;;;;;;;;;;21.20;69.20;;;;;;10330950;28;94761;-65
2023/08/06 23:40:20;;;;;;;;;;;21.30;69.20;;;;;;10330841;28;93936;-64
2023/08/06 23:45:22;;;;;;;;;;;21.20;69.20;;;;;;10331740;28;93787;-65
2023/08/06 23:50:24;;;;;;;;;;;21.20;69.20;;;;;;10330014;28;92717;-65
2023/08/06 23:55:28;;;;;;;;;;;21.20;69.10;;;;;;10329271;28;95234;-64
